createdAt,value
2017-10-04T00:00:27.558Z,12.61
2017-10-04T00:01:08.129Z,12.61
2017-10-04T00:01:48.720Z,12.73
2017-10-04T00:02:29.307Z,12.62
2017-10-04T00:03:09.929Z,12.76
2017-10-04T00:03:50.514Z,12.76
2017-10-04T00:04:31.133Z,12.75
2017-10-04T00:05:11.708Z,12.78
2017-10-04T00:05:52.308Z,12.73
2017-10-04T00:06:32.922Z,12.76
2017-10-04T00:07:13.527Z,12.67
2017-10-04T00:07:54.100Z,12.76
2017-10-04T00:08:34.674Z,12.76
2017-10-04T00:09:15.255Z,12.75
2017-10-04T00:09:55.814Z,12.91
2017-10-04T00:10:36.373Z,12.82
2017-10-04T00:11:16.996Z,12.75
2017-10-04T00:11:57.560Z,12.83
2017-10-04T00:12:38.146Z,12.85
2017-10-04T00:14:30.735Z,12.79
2017-10-04T00:16:30.293Z,12.82
2017-10-04T00:17:10.889Z,12.82
2017-10-04T00:17:51.505Z,12.83
2017-10-04T00:18:32.879Z,12.82
2017-10-04T00:19:13.437Z,12.78
2017-10-04T00:19:54.017Z,12.76
2017-10-04T00:20:34.632Z,12.73
2017-10-04T00:21:15.217Z,12.75
2017-10-04T00:21:55.794Z,12.8
2017-10-04T00:23:48.423Z,12.8
2017-10-04T00:24:29.044Z,12.85
2017-10-04T00:25:09.592Z,12.83
2017-10-04T00:25:50.155Z,12.79
2017-10-04T00:26:30.788Z,12.83
2017-10-04T00:27:11.353Z,12.72
2017-10-04T00:27:51.933Z,12.85
2017-10-04T00:28:32.490Z,12.8
2017-10-04T00:29:14.904Z,12.75
2017-10-04T00:29:55.469Z,12.87
2017-10-04T00:30:39.007Z,12.73
2017-10-04T00:31:20.151Z,12.76
2017-10-04T00:32:00.723Z,12.79
2017-10-04T00:32:41.327Z,12.78
2017-10-04T00:33:21.907Z,12.75
2017-10-04T00:34:02.498Z,12.68
2017-10-04T00:34:43.115Z,12.78
2017-10-04T00:35:23.699Z,12.72
2017-10-04T00:36:04.286Z,12.61
2017-10-04T00:36:44.882Z,12.73
2017-10-04T00:37:25.447Z,12.62
2017-10-04T00:38:06.020Z,12.62
2017-10-04T00:38:46.593Z,12.57
2017-10-04T00:39:27.169Z,12.65
2017-10-04T00:40:07.745Z,12.61
2017-10-04T00:40:48.332Z,12.6
2017-10-04T00:41:28.928Z,12.67
2017-10-04T00:43:26.633Z,12.73
2017-10-04T00:44:07.207Z,12.6
2017-10-04T00:44:47.799Z,12.72
2017-10-04T00:45:28.364Z,12.58
2017-10-04T00:46:08.935Z,12.72
2017-10-04T00:46:49.519Z,12.75
2017-10-04T00:47:30.093Z,12.62
2017-10-04T00:48:10.665Z,12.6
2017-10-04T00:48:51.233Z,12.62
2017-10-04T00:49:31.852Z,12.62
2017-10-04T00:50:12.429Z,12.57
2017-10-04T00:50:53.029Z,12.62
2017-10-04T00:51:33.711Z,12.64
2017-10-04T00:52:14.351Z,12.64
2017-10-04T00:52:55.102Z,12.6
2017-10-04T00:53:35.844Z,12.6
2017-10-04T00:54:16.563Z,12.65
2017-10-04T00:54:57.128Z,12.61
2017-10-04T00:55:37.705Z,12.6
2017-10-04T00:56:18.276Z,12.67
2017-10-04T00:56:58.893Z,12.6
2017-10-04T00:57:39.481Z,12.58
2017-10-04T00:58:20.071Z,12.55
2017-10-04T00:59:00.660Z,12.6
2017-10-04T00:59:41.271Z,12.61
2017-10-04T01:00:21.888Z,12.5
2017-10-04T01:01:02.478Z,12.58
2017-10-04T01:01:43.091Z,12.53
2017-10-04T01:02:23.666Z,12.6
2017-10-04T01:03:04.222Z,12.6
2017-10-04T01:03:44.820Z,12.55
2017-10-04T01:04:25.427Z,12.55
2017-10-04T01:05:06.016Z,12.54
2017-10-04T01:05:46.716Z,12.54
2017-10-04T01:06:27.380Z,12.54
2017-10-04T01:07:08.066Z,12.53
2017-10-04T01:07:48.867Z,12.53
2017-10-04T01:08:29.510Z,12.5
2017-10-04T01:09:10.217Z,12.45
2017-10-04T01:09:50.813Z,12.55
2017-10-04T01:10:31.401Z,12.49
2017-10-04T01:11:12.016Z,12.49
2017-10-04T01:11:52.653Z,12.49
2017-10-04T01:12:33.231Z,12.49
2017-10-04T01:13:13.823Z,12.53
2017-10-04T01:13:54.435Z,12.46
2017-10-04T01:14:35.013Z,12.53
2017-10-04T01:15:15.584Z,12.53
2017-10-04T01:15:56.193Z,12.49
2017-10-04T01:16:36.780Z,12.57
2017-10-04T01:17:17.412Z,12.53
2017-10-04T01:17:58.005Z,12.53
2017-10-04T01:18:38.574Z,12.58
2017-10-04T01:19:19.158Z,12.57
2017-10-04T01:19:59.759Z,12.55
2017-10-04T01:20:40.351Z,12.53
2017-10-04T01:21:20.946Z,12.55
2017-10-04T01:23:19.333Z,12.68
2017-10-04T01:23:59.937Z,12.53
2017-10-04T01:24:40.547Z,12.57
2017-10-04T01:25:21.109Z,12.54
2017-10-04T01:26:01.704Z,12.54
2017-10-04T01:26:42.268Z,12.62
2017-10-04T01:27:27.614Z,12.6
2017-10-04T01:28:09.729Z,12.6
2017-10-04T01:28:52.117Z,12.57
2017-10-04T01:29:32.711Z,12.58
2017-10-04T01:30:13.328Z,12.57
2017-10-04T01:30:58.423Z,12.55
2017-10-04T01:31:38.982Z,12.57
2017-10-04T01:32:19.574Z,12.55
2017-10-04T01:33:00.140Z,12.5
2017-10-04T01:33:40.710Z,12.53
2017-10-04T01:34:21.346Z,12.57
2017-10-04T01:35:01.948Z,12.55
2017-10-04T01:35:42.509Z,12.55
2017-10-04T01:36:23.083Z,12.61
2017-10-04T01:37:03.731Z,12.55
2017-10-04T01:37:44.302Z,12.55
2017-10-04T01:38:24.884Z,12.55
2017-10-04T01:39:05.464Z,12.54
2017-10-04T01:39:46.027Z,12.6
2017-10-04T01:40:26.680Z,12.6
2017-10-04T01:41:07.285Z,12.55
2017-10-04T01:41:47.857Z,12.55
2017-10-04T01:42:28.447Z,12.54
2017-10-04T01:43:09.015Z,12.5
2017-10-04T01:43:49.604Z,12.55
2017-10-04T01:44:32.852Z,12.61
2017-10-04T01:45:13.456Z,12.53
2017-10-04T01:45:54.063Z,12.53
2017-10-04T01:46:34.651Z,12.53
2017-10-04T01:47:15.254Z,12.55
2017-10-04T01:47:55.819Z,12.54
2017-10-04T01:48:36.390Z,12.57
2017-10-04T01:49:16.957Z,12.57
2017-10-04T01:49:57.531Z,12.57
2017-10-04T01:50:38.107Z,12.54
2017-10-04T01:51:18.678Z,12.57
2017-10-04T01:52:56.021Z,12.5
2017-10-04T01:53:36.630Z,12.54
2017-10-04T01:54:17.229Z,12.57
2017-10-04T01:54:57.811Z,12.55
2017-10-04T01:55:38.387Z,12.61
2017-10-04T01:56:19.024Z,12.55
2017-10-04T01:56:59.573Z,12.5
2017-10-04T01:57:40.177Z,12.55
2017-10-04T01:58:20.747Z,12.54
2017-10-04T01:59:01.357Z,12.58
2017-10-04T01:59:41.897Z,12.5
2017-10-04T02:00:22.480Z,12.47
2017-10-04T02:01:03.059Z,12.47
2017-10-04T02:01:43.642Z,12.5
2017-10-04T02:02:24.258Z,12.45
2017-10-04T02:03:04.826Z,12.57
2017-10-04T02:03:45.407Z,12.49
2017-10-04T02:04:26.037Z,12.49
2017-10-04T02:05:06.602Z,12.49
2017-10-04T02:05:47.202Z,12.5
2017-10-04T02:06:27.772Z,12.42
2017-10-04T02:07:08.374Z,12.47
2017-10-04T02:07:48.952Z,12.5
2017-10-04T02:08:29.542Z,12.47
2017-10-04T02:09:10.133Z,12.46
2017-10-04T02:09:50.704Z,12.49
2017-10-04T02:10:31.295Z,12.42
2017-10-04T02:11:11.893Z,12.47
2017-10-04T02:11:52.524Z,12.47
2017-10-04T02:12:33.098Z,12.47
2017-10-04T02:13:13.696Z,12.42
2017-10-04T02:13:54.282Z,12.47
2017-10-04T02:14:34.903Z,12.47
2017-10-04T02:15:15.529Z,12.45
2017-10-04T02:15:56.153Z,12.46
2017-10-04T02:16:36.750Z,12.43
2017-10-04T02:17:17.317Z,12.37
2017-10-04T02:17:57.892Z,12.39
2017-10-04T02:18:38.512Z,12.32
2017-10-04T02:19:19.088Z,12.32
2017-10-04T02:21:32.394Z,12.31
2017-10-04T02:22:17.681Z,12.24
2017-10-04T02:22:58.310Z,12.22
2017-10-04T02:23:38.897Z,12.21
2017-10-04T02:24:20.294Z,12.22
2017-10-04T02:25:00.914Z,12.24
2017-10-04T02:25:41.528Z,12.31
2017-10-04T02:26:22.119Z,12.25
2017-10-04T02:27:02.695Z,12.24
2017-10-04T02:27:43.264Z,12.32
2017-10-04T02:28:23.835Z,12.21
2017-10-04T02:29:04.395Z,12.24
2017-10-04T02:29:44.945Z,12.22
2017-10-04T02:30:25.525Z,12.29
2017-10-04T02:31:06.083Z,12.22
2017-10-04T02:31:46.681Z,12.25
2017-10-04T02:32:27.278Z,12.31
2017-10-04T02:33:07.836Z,12.28
2017-10-04T02:33:48.416Z,12.37
2017-10-04T02:34:28.989Z,12.2
2017-10-04T02:35:09.600Z,12.2
2017-10-04T02:36:01.008Z,12.18
2017-10-04T02:36:41.590Z,12.17
2017-10-04T02:37:22.150Z,12.21
2017-10-04T02:38:02.743Z,12.18
2017-10-04T02:40:16.094Z,12.22
2017-10-04T02:40:56.647Z,12.37
2017-10-04T02:41:37.279Z,12.31
2017-10-04T02:42:18.095Z,12.32
2017-10-04T02:43:09.335Z,12.21
2017-10-04T02:43:49.954Z,12.22
2017-10-04T02:44:30.545Z,12.35
2017-10-04T02:45:11.149Z,12.32
2017-10-04T02:45:56.367Z,12.36
2017-10-04T02:46:36.959Z,12.32
2017-10-04T02:47:17.531Z,12.22
2017-10-04T02:47:58.144Z,12.24
2017-10-04T02:50:10.966Z,12.37
2017-10-04T02:50:51.575Z,12.32
2017-10-04T02:51:32.161Z,12.32
2017-10-04T02:52:17.782Z,12.32
2017-10-04T02:52:58.385Z,12.37
2017-10-04T02:53:38.996Z,12.29
2017-10-04T02:54:24.869Z,12.36
2017-10-04T02:55:06.968Z,12.35
2017-10-04T02:55:52.239Z,12.32
2017-10-04T02:56:32.807Z,12.24
2017-10-04T02:57:13.419Z,12.37
2017-10-04T02:57:54.032Z,12.22
2017-10-04T02:58:34.631Z,12.2
2017-10-04T02:59:17.195Z,12.22
2017-10-04T02:59:57.836Z,12.17
2017-10-04T03:00:42.962Z,12.25
2017-10-04T03:01:25.113Z,12.24
2017-10-04T03:02:05.722Z,12.13
2017-10-04T03:02:46.361Z,12.18
2017-10-04T03:03:26.956Z,12.07
2017-10-04T03:04:07.573Z,12.12
2017-10-04T03:04:48.192Z,12.07
2017-10-04T03:05:28.786Z,12.03
2017-10-04T03:06:12.059Z,12.04
2017-10-04T03:06:52.675Z,12.09
2017-10-04T03:07:33.272Z,12.13
2017-10-04T03:08:13.897Z,12.17
2017-10-04T03:08:54.474Z,12.13
2017-10-04T03:09:35.069Z,12.15
2017-10-04T03:10:16.580Z,12.15
2017-10-04T03:10:57.208Z,12.2
2017-10-04T03:11:37.804Z,12.15
2017-10-04T03:12:23.093Z,12.17
2017-10-04T03:13:03.718Z,12.13
2017-10-04T03:13:48.855Z,12.17
2017-10-04T03:14:36.872Z,12.18
2017-10-04T03:15:17.479Z,12.17
2017-10-04T03:15:58.143Z,12.18
2017-10-04T03:16:38.740Z,12.18
2017-10-04T03:17:19.323Z,12.12
2017-10-04T03:17:59.900Z,12.2
2017-10-04T03:18:40.470Z,12.22
2017-10-04T03:19:21.055Z,12.1
2017-10-04T03:20:01.633Z,12.09
2017-10-04T03:20:42.331Z,12.12
2017-10-04T03:21:22.799Z,12.13
2017-10-04T03:22:03.381Z,12.15
2017-10-04T03:22:43.988Z,12.12
2017-10-04T03:23:24.603Z,12.2
2017-10-04T03:24:05.230Z,12.1
2017-10-04T03:24:45.825Z,12.15
2017-10-04T03:25:26.403Z,12.2
2017-10-04T03:26:06.993Z,12.12
2017-10-04T03:26:47.650Z,12.12
2017-10-04T03:27:28.226Z,12.13
2017-10-04T03:28:08.808Z,12.13
2017-10-04T03:28:54.256Z,12.1
2017-10-04T03:29:35.759Z,12.1
2017-10-04T03:30:18.849Z,12.12
2017-10-04T03:31:00.204Z,12.15
2017-10-04T03:31:42.623Z,12.12
2017-10-04T03:32:23.221Z,12.18
2017-10-04T03:33:05.492Z,12.15
2017-10-04T03:33:46.086Z,12.09
2017-10-04T03:34:26.642Z,12.1
2017-10-04T03:35:07.227Z,12.09
2017-10-04T03:35:47.862Z,11.97
2017-10-04T03:36:28.420Z,11.99
2017-10-04T03:37:09.051Z,11.97
2017-10-04T03:37:50.622Z,12.04
2017-10-04T03:38:31.747Z,11.97
2017-10-04T03:39:13.267Z,12.06
2017-10-04T03:39:56.571Z,12
2017-10-04T03:40:37.140Z,12.02
2017-10-04T03:41:18.083Z,11.99
2017-10-04T03:41:58.642Z,11.95
2017-10-04T03:42:39.226Z,11.9
2017-10-04T03:43:19.821Z,11.94
2017-10-04T03:44:00.402Z,11.95
2017-10-04T03:44:40.987Z,11.95
2017-10-04T03:45:21.583Z,11.95
2017-10-04T03:46:03.859Z,11.9
2017-10-04T03:46:46.062Z,11.99
2017-10-04T03:47:26.666Z,11.94
2017-10-04T03:48:07.287Z,11.97
2017-10-04T03:48:47.870Z,11.87
2017-10-04T03:49:28.500Z,11.97
2017-10-04T03:50:09.060Z,11.99
2017-10-04T03:50:51.589Z,11.95
2017-10-04T03:51:32.183Z,12
2017-10-04T03:52:12.769Z,11.99
2017-10-04T03:52:53.341Z,11.91
2017-10-04T03:53:33.928Z,11.9
2017-10-04T03:54:14.519Z,11.86
2017-10-04T03:54:55.129Z,11.81
2017-10-04T03:55:35.848Z,11.83
2017-10-04T03:56:20.968Z,11.81
2017-10-04T03:57:01.540Z,11.88
2017-10-04T03:57:42.135Z,11.8
2017-10-04T03:58:25.253Z,11.83
2017-10-04T03:59:05.821Z,11.88
2017-10-04T03:59:46.475Z,11.78
2017-10-04T04:00:28.870Z,11.86
2017-10-04T04:01:09.460Z,11.86
2017-10-04T04:01:51.865Z,11.83
2017-10-04T04:02:32.498Z,11.81
2017-10-04T04:03:13.060Z,11.86
2017-10-04T04:03:53.672Z,11.86
2017-10-04T04:04:34.239Z,11.86
2017-10-04T04:05:15.586Z,11.84
2017-10-04T04:05:56.340Z,11.81
2017-10-04T04:06:36.904Z,11.77
2017-10-04T04:07:17.527Z,11.86
2017-10-04T04:07:58.102Z,11.81
2017-10-04T04:08:38.692Z,11.78
2017-10-04T04:09:19.261Z,11.86
2017-10-04T04:09:59.834Z,11.78
2017-10-04T04:10:40.407Z,11.8
2017-10-04T04:11:20.965Z,11.78
2017-10-04T04:12:01.563Z,11.73
2017-10-04T04:12:42.126Z,11.81
2017-10-04T04:13:23.467Z,11.72
2017-10-04T04:14:04.052Z,11.75
2017-10-04T04:14:44.608Z,11.75
2017-10-04T04:15:25.205Z,11.72
2017-10-04T04:16:05.776Z,11.81
2017-10-04T04:16:46.344Z,11.77
2017-10-04T04:17:26.908Z,11.77
2017-10-04T04:18:07.495Z,11.75
2017-10-04T04:18:48.073Z,11.77
2017-10-04T04:19:28.695Z,11.78
2017-10-04T04:20:09.253Z,11.77
2017-10-04T04:20:49.824Z,11.75
2017-10-04T04:21:30.408Z,11.77
2017-10-04T04:22:10.971Z,11.78
2017-10-04T04:22:51.559Z,11.77
2017-10-04T04:23:32.122Z,11.8
2017-10-04T04:24:12.702Z,11.77
2017-10-04T04:24:53.274Z,11.78
2017-10-04T04:25:33.867Z,11.75
2017-10-04T04:26:14.444Z,11.72
2017-10-04T04:26:55.026Z,11.73
2017-10-04T04:27:35.596Z,11.78
2017-10-04T04:28:16.195Z,11.75
2017-10-04T04:28:56.729Z,11.78
2017-10-04T04:29:37.295Z,11.78
2017-10-04T04:30:17.923Z,11.7
2017-10-04T04:30:58.501Z,11.69
2017-10-04T04:31:39.078Z,11.7
2017-10-04T04:32:19.656Z,11.75
2017-10-04T04:33:00.234Z,11.78
2017-10-04T04:33:40.831Z,11.8
2017-10-04T04:34:21.411Z,11.77
2017-10-04T04:35:02.011Z,11.73
2017-10-04T04:35:42.658Z,11.73
2017-10-04T04:36:23.214Z,11.73
2017-10-04T04:37:03.776Z,11.87
2017-10-04T04:37:44.413Z,11.81
2017-10-04T04:38:25.011Z,11.87
2017-10-04T04:39:05.592Z,11.83
2017-10-04T04:39:46.179Z,11.84
2017-10-04T04:40:26.752Z,11.83
2017-10-04T04:41:07.347Z,11.86
2017-10-04T04:41:47.923Z,11.8
2017-10-04T04:42:28.507Z,11.81
2017-10-04T04:43:09.103Z,11.83
2017-10-04T04:43:49.681Z,11.81
2017-10-04T04:44:30.307Z,11.95
2017-10-04T04:45:10.844Z,11.84
2017-10-04T04:45:51.461Z,11.91
2017-10-04T04:46:32.025Z,11.86
2017-10-04T04:47:12.635Z,11.88
2017-10-04T04:47:53.260Z,11.86
2017-10-04T04:48:33.874Z,11.81
2017-10-04T04:49:14.476Z,11.97
2017-10-04T04:49:55.073Z,11.95
2017-10-04T04:50:35.676Z,11.95
2017-10-04T04:51:16.291Z,11.83
2017-10-04T04:51:56.865Z,11.91
2017-10-04T04:52:37.473Z,11.88
2017-10-04T04:53:18.067Z,11.91
2017-10-04T04:53:58.730Z,11.84
2017-10-04T04:54:39.324Z,11.9
2017-10-04T04:55:19.899Z,11.87
2017-10-04T04:56:00.520Z,11.86
2017-10-04T04:56:41.157Z,11.86
2017-10-04T04:57:21.740Z,11.94
2017-10-04T04:58:02.304Z,11.91
2017-10-04T04:58:42.867Z,11.86
2017-10-04T04:59:23.461Z,11.9
2017-10-04T05:00:04.174Z,11.95
2017-10-04T05:00:44.804Z,11.9
2017-10-04T05:01:25.399Z,11.86
2017-10-04T05:02:05.967Z,11.91
2017-10-04T05:02:46.653Z,11.9
2017-10-04T05:03:27.244Z,11.94
2017-10-04T05:04:07.818Z,11.88
2017-10-04T05:04:48.392Z,11.84
2017-10-04T05:05:28.957Z,11.8
2017-10-04T05:06:09.554Z,11.84
2017-10-04T05:06:50.120Z,11.88
2017-10-04T05:07:30.701Z,11.86
2017-10-04T05:08:11.288Z,11.8
2017-10-04T05:08:51.858Z,11.9
2017-10-04T05:09:32.435Z,11.95
2017-10-04T05:10:13.026Z,11.94
2017-10-04T05:10:53.595Z,11.91
2017-10-04T05:11:34.175Z,12
2017-10-04T05:12:14.798Z,11.95
2017-10-04T05:12:55.410Z,11.94
2017-10-04T05:13:35.998Z,11.95
2017-10-04T05:14:16.574Z,11.95
2017-10-04T05:14:57.165Z,11.91
2017-10-04T05:15:37.729Z,11.95
2017-10-04T05:16:18.390Z,11.94
2017-10-04T05:16:58.982Z,12
2017-10-04T05:17:39.541Z,11.94
2017-10-04T05:18:20.102Z,11.88
2017-10-04T05:19:00.687Z,11.99
2017-10-04T05:19:41.266Z,11.9
2017-10-04T05:20:21.882Z,11.87
2017-10-04T05:21:02.470Z,11.95
2017-10-04T05:21:43.069Z,11.99
2017-10-04T05:22:23.679Z,11.91
2017-10-04T05:23:04.267Z,11.97
2017-10-04T05:23:44.845Z,11.94
2017-10-04T05:24:25.401Z,11.88
2017-10-04T05:25:06.019Z,11.91
2017-10-04T05:25:46.598Z,11.99
2017-10-04T05:26:27.220Z,11.94
2017-10-04T05:27:07.803Z,11.95
2017-10-04T05:27:48.410Z,12.02
2017-10-04T05:28:29.001Z,11.86
2017-10-04T05:29:09.597Z,11.99
2017-10-04T05:29:50.186Z,12.17
2017-10-04T05:30:30.776Z,12.35
2017-10-04T05:31:11.349Z,12.46
2017-10-04T05:31:51.952Z,12.49
2017-10-04T05:32:32.515Z,12.62
2017-10-04T05:33:13.102Z,12.76
2017-10-04T05:33:53.759Z,12.91
2017-10-04T05:34:34.345Z,13
2017-10-04T05:35:14.916Z,13.09
2017-10-04T05:35:55.518Z,13.27
2017-10-04T05:36:36.125Z,13.33
2017-10-04T05:37:16.712Z,13.37
2017-10-04T05:37:57.328Z,13.39
2017-10-04T05:38:37.895Z,13.49
2017-10-04T05:39:18.475Z,13.53
2017-10-04T05:39:59.063Z,13.54
2017-10-04T05:40:39.647Z,13.57
2017-10-04T05:41:20.241Z,13.7
2017-10-04T05:42:00.812Z,13.67
2017-10-04T05:42:41.402Z,13.77
2017-10-04T05:43:21.965Z,13.83
2017-10-04T05:44:02.531Z,13.81
2017-10-04T05:44:43.125Z,13.9
2017-10-04T05:45:23.699Z,13.87
2017-10-04T05:46:04.263Z,13.93
2017-10-04T05:46:44.838Z,13.92
2017-10-04T05:47:25.407Z,14.07
2017-10-04T05:48:05.980Z,14.03
2017-10-04T05:48:46.569Z,14.17
2017-10-04T05:49:27.150Z,14.17
2017-10-04T05:50:07.737Z,14.17
2017-10-04T05:50:48.334Z,14.22
2017-10-04T05:51:28.918Z,14.26
2017-10-04T05:52:09.528Z,14.29
2017-10-04T05:52:50.099Z,14.22
2017-10-04T05:53:30.672Z,14.22
2017-10-04T05:54:11.233Z,14.26
2017-10-04T05:54:51.877Z,14.28
2017-10-04T05:55:32.465Z,14.3
2017-10-04T05:56:13.072Z,14.25
2017-10-04T05:56:53.666Z,14.36
2017-10-04T05:57:34.290Z,14.37
2017-10-04T05:58:14.834Z,14.3
2017-10-04T05:58:55.422Z,14.37
2017-10-04T05:59:35.999Z,14.45
2017-10-04T06:00:16.576Z,14.43
2017-10-04T06:00:57.141Z,14.41
2017-10-04T06:01:37.738Z,14.44
2017-10-04T06:02:18.409Z,14.58
2017-10-04T06:02:58.981Z,14.54
2017-10-04T06:03:39.614Z,14.53
2017-10-04T06:04:20.220Z,14.48
2017-10-04T06:05:00.801Z,14.5
2017-10-04T06:05:41.419Z,14.55
2017-10-04T06:06:22.031Z,14.53
2017-10-04T06:07:02.623Z,14.48
2017-10-04T06:07:43.218Z,14.63
2017-10-04T06:08:23.798Z,14.58
2017-10-04T06:09:04.383Z,14.55
2017-10-04T06:09:44.960Z,14.72
2017-10-04T06:10:25.642Z,14.66
2017-10-04T06:11:06.257Z,14.69
2017-10-04T06:11:46.820Z,14.82
2017-10-04T06:12:27.453Z,14.79
2017-10-04T06:13:08.028Z,14.85
2017-10-04T06:13:48.705Z,14.84
2017-10-04T06:14:29.297Z,14.84
2017-10-04T06:15:09.884Z,14.81
2017-10-04T06:15:50.529Z,14.72
2017-10-04T06:16:31.148Z,14.63
2017-10-04T06:17:11.749Z,14.54
2017-10-04T06:17:52.439Z,14.53
2017-10-04T06:18:33.030Z,14.37
2017-10-04T06:19:13.628Z,14.18
2017-10-04T06:19:54.253Z,14.25
2017-10-04T06:20:34.837Z,14.11
2017-10-04T06:21:15.416Z,14.07
2017-10-04T06:21:56.112Z,14
2017-10-04T06:22:36.700Z,14.03
2017-10-04T06:23:17.284Z,13.89
2017-10-04T06:23:57.860Z,13.85
2017-10-04T06:24:38.456Z,13.71
2017-10-04T06:25:19.039Z,13.77
2017-10-04T06:25:59.599Z,13.59
2017-10-04T06:26:40.184Z,13.62
2017-10-04T06:27:20.785Z,13.42
2017-10-04T06:28:01.361Z,13.54
2017-10-04T06:28:41.968Z,13.5
2017-10-04T06:29:22.592Z,13.46
2017-10-04T06:30:03.337Z,13.41
2017-10-04T06:30:43.921Z,13.31
2017-10-04T06:31:24.616Z,13.39
2017-10-04T06:32:05.168Z,13.31
2017-10-04T06:32:45.769Z,13.35
2017-10-04T06:33:26.367Z,13.31
2017-10-04T06:34:06.999Z,13.27
2017-10-04T06:34:47.570Z,13.18
2017-10-04T06:35:28.613Z,13.22
2017-10-04T06:36:09.000Z,13.13
2017-10-04T06:36:49.597Z,13.09
2017-10-04T06:37:30.415Z,13.11
2017-10-04T06:38:10.970Z,13.05
2017-10-04T06:38:51.575Z,13.04
2017-10-04T06:39:32.265Z,13.04
2017-10-04T06:40:13.137Z,13.04
2017-10-04T06:40:53.722Z,12.98
2017-10-04T06:41:34.567Z,12.94
2017-10-04T06:42:15.433Z,12.97
2017-10-04T06:42:56.025Z,12.91
2017-10-04T06:43:36.649Z,12.93
2017-10-04T06:44:17.940Z,12.93
2017-10-04T06:44:58.507Z,12.94
2017-10-04T06:45:39.165Z,12.98
2017-10-04T06:46:19.826Z,12.97
2017-10-04T06:47:00.431Z,12.86
2017-10-04T06:47:41.044Z,12.98
2017-10-04T06:48:21.631Z,12.94
2017-10-04T06:49:02.256Z,12.93
2017-10-04T06:49:42.814Z,12.93
2017-10-04T06:50:23.413Z,12.87
2017-10-04T06:51:04.201Z,12.86
2017-10-04T06:51:44.794Z,12.87
2017-10-04T06:52:25.382Z,12.82
2017-10-04T06:53:05.942Z,12.8
2017-10-04T06:53:46.542Z,12.83
2017-10-04T06:54:27.144Z,12.86
2017-10-04T06:55:07.742Z,12.86
2017-10-04T06:55:48.331Z,12.82
2017-10-04T06:56:28.954Z,12.7
2017-10-04T06:57:09.590Z,12.76
2017-10-04T06:57:50.187Z,12.82
2017-10-04T06:58:30.858Z,12.82
2017-10-04T06:59:11.467Z,12.73
2017-10-04T06:59:52.080Z,12.68
2017-10-04T07:00:32.717Z,12.76
2017-10-04T07:01:13.329Z,12.72
2017-10-04T07:01:53.931Z,12.75
2017-10-04T07:02:34.540Z,12.7
2017-10-04T07:03:15.169Z,12.75
2017-10-04T07:03:55.735Z,12.72
2017-10-04T07:04:36.338Z,12.78
2017-10-04T07:05:16.963Z,12.76
2017-10-04T07:05:57.543Z,12.72
2017-10-04T07:06:38.151Z,12.72
2017-10-04T07:07:18.827Z,12.73
2017-10-04T07:07:59.418Z,12.67
2017-10-04T07:08:40.053Z,12.79
2017-10-04T07:09:20.692Z,12.76
2017-10-04T07:10:01.261Z,12.76
2017-10-04T07:10:41.869Z,12.73
2017-10-04T07:11:22.481Z,12.72
2017-10-04T07:12:03.079Z,12.82
2017-10-04T07:12:43.687Z,12.82
2017-10-04T07:13:24.324Z,12.85
2017-10-04T07:14:04.924Z,12.83
2017-10-04T07:14:45.546Z,12.85
2017-10-04T07:15:26.186Z,12.85
2017-10-04T07:16:06.819Z,12.83
2017-10-04T07:16:47.392Z,12.82
2017-10-04T07:17:28.045Z,12.85
2017-10-04T07:18:08.643Z,12.75
2017-10-04T07:18:49.240Z,12.86
2017-10-04T07:19:29.949Z,12.82
2017-10-04T07:20:10.667Z,12.86
2017-10-04T07:20:51.317Z,12.82
2017-10-04T07:21:31.963Z,12.82
2017-10-04T07:22:12.616Z,12.86
2017-10-04T07:22:53.328Z,12.85
2017-10-04T07:23:33.961Z,12.83
2017-10-04T07:24:14.582Z,12.86
2017-10-04T07:24:55.213Z,12.79
2017-10-04T07:25:35.798Z,12.87
2017-10-04T07:26:16.393Z,12.82
2017-10-04T07:26:57.028Z,12.85
2017-10-04T07:27:37.639Z,12.9
2017-10-04T07:28:18.254Z,12.97
2017-10-04T07:28:58.842Z,12.93
2017-10-04T07:29:39.410Z,12.98
2017-10-04T07:30:20.032Z,12.95
2017-10-04T07:31:00.642Z,13.01
2017-10-04T07:31:41.312Z,13.04
2017-10-04T07:32:21.859Z,13.01
2017-10-04T07:33:02.446Z,13.04
2017-10-04T07:33:43.154Z,13.08
2017-10-04T07:34:23.825Z,13.13
2017-10-04T07:35:04.433Z,13.09
2017-10-04T07:35:45.050Z,13.13
2017-10-04T07:36:25.664Z,13.11
2017-10-04T07:37:06.294Z,13.11
2017-10-04T07:37:46.895Z,13.08
2017-10-04T07:38:27.527Z,13.11
2017-10-04T07:39:08.140Z,13.08
2017-10-04T07:39:48.725Z,13.01
2017-10-04T07:40:29.308Z,13.05
2017-10-04T07:41:09.921Z,13.05
2017-10-04T07:41:50.530Z,13.11
2017-10-04T07:42:31.126Z,13.05
2017-10-04T07:43:11.715Z,13.11
2017-10-04T07:43:52.320Z,13.28
2017-10-04T07:44:33.269Z,13.28
2017-10-04T07:45:13.907Z,13.31
2017-10-04T07:45:54.642Z,13.35
2017-10-04T07:46:35.213Z,13.33
2017-10-04T07:47:15.794Z,13.31
2017-10-04T07:47:56.486Z,13.33
2017-10-04T07:48:37.044Z,13.33
2017-10-04T07:49:17.616Z,13.25
2017-10-04T07:49:58.226Z,13.2
2017-10-04T07:50:38.817Z,13.25
2017-10-04T07:51:19.386Z,13.28
2017-10-04T07:51:59.957Z,13.25
2017-10-04T07:52:40.520Z,13.27
2017-10-04T07:53:21.107Z,13.25
2017-10-04T07:54:01.694Z,13.2
2017-10-04T07:54:42.285Z,13.3
2017-10-04T07:55:22.875Z,13.37
2017-10-04T07:56:03.448Z,13.31
2017-10-04T07:56:44.060Z,13.44
2017-10-04T07:57:24.650Z,13.39
2017-10-04T07:58:05.254Z,13.47
2017-10-04T07:58:45.843Z,13.47
2017-10-04T07:59:26.451Z,13.5
2017-10-04T08:00:07.233Z,13.39
2017-10-04T08:00:47.825Z,13.5
2017-10-04T08:01:28.439Z,13.49
2017-10-04T08:02:09.077Z,13.47
2017-10-04T08:02:49.764Z,13.44
2017-10-04T08:03:30.343Z,13.44
2017-10-04T08:04:10.975Z,13.41
2017-10-04T08:04:51.590Z,13.42
2017-10-04T08:05:32.353Z,13.38
2017-10-04T08:06:12.935Z,13.47
2017-10-04T08:06:53.577Z,13.39
2017-10-04T08:07:34.227Z,13.39
2017-10-04T08:08:14.811Z,13.37
2017-10-04T08:08:55.441Z,13.42
2017-10-04T08:09:36.032Z,13.39
2017-10-04T08:10:16.644Z,13.35
2017-10-04T08:10:57.235Z,13.35
2017-10-04T08:11:37.839Z,13.39
2017-10-04T08:12:18.593Z,13.42
2017-10-04T08:12:59.313Z,13.38
2017-10-04T08:13:39.913Z,13.47
2017-10-04T08:14:20.542Z,13.47
2017-10-04T08:15:01.158Z,13.41
2017-10-04T08:15:41.747Z,13.35
2017-10-04T08:16:22.347Z,13.35
2017-10-04T08:17:02.965Z,13.39
2017-10-04T08:17:43.556Z,13.44
2017-10-04T08:18:24.157Z,13.35
2017-10-04T08:19:04.753Z,13.33
2017-10-04T08:19:45.410Z,13.38
2017-10-04T08:20:26.013Z,13.39
2017-10-04T08:21:06.579Z,13.38
2017-10-04T08:21:47.200Z,13.35
2017-10-04T08:22:27.776Z,13.5
2017-10-04T08:23:08.388Z,13.38
2017-10-04T08:23:48.966Z,13.38
2017-10-04T08:24:29.544Z,13.39
2017-10-04T08:25:10.299Z,13.41
2017-10-04T08:25:50.836Z,13.38
2017-10-04T08:26:31.441Z,13.47
2017-10-04T08:27:12.033Z,13.5
2017-10-04T08:27:52.624Z,13.5
2017-10-04T08:28:33.234Z,13.46
2017-10-04T08:29:13.849Z,13.5
2017-10-04T08:29:54.454Z,13.44
2017-10-04T08:30:35.075Z,13.53
2017-10-04T08:31:15.710Z,13.44
2017-10-04T08:31:56.266Z,13.49
2017-10-04T08:32:36.872Z,13.57
2017-10-04T08:33:17.507Z,13.63
2017-10-04T08:33:58.090Z,13.6
2017-10-04T08:34:38.707Z,13.57
2017-10-04T08:35:19.333Z,13.59
2017-10-04T08:36:00.089Z,13.62
2017-10-04T08:36:40.694Z,13.63
2017-10-04T08:37:21.268Z,13.62
2017-10-04T08:38:01.885Z,13.62
2017-10-04T08:38:42.513Z,13.7
2017-10-04T08:39:23.117Z,13.68
2017-10-04T08:40:03.727Z,13.75
2017-10-04T08:40:44.333Z,13.71
2017-10-04T08:41:24.920Z,13.79
2017-10-04T08:42:05.536Z,13.77
2017-10-04T08:42:46.157Z,13.77
2017-10-04T08:43:26.828Z,13.83
2017-10-04T08:44:07.394Z,13.86
2017-10-04T08:44:47.981Z,13.92
2017-10-04T08:45:28.606Z,13.86
2017-10-04T08:46:09.258Z,13.89
2017-10-04T08:46:50.013Z,13.93
2017-10-04T08:47:30.587Z,13.89
2017-10-04T08:48:11.176Z,13.75
2017-10-04T08:48:52.583Z,13.86
2017-10-04T08:49:33.003Z,13.92
2017-10-04T08:50:13.632Z,13.89
2017-10-04T08:50:54.303Z,13.87
2017-10-04T08:51:34.852Z,13.83
2017-10-04T08:52:15.455Z,13.93
2017-10-04T08:52:56.171Z,13.86
2017-10-04T08:53:36.750Z,13.85
2017-10-04T08:54:17.330Z,13.81
2017-10-04T08:54:57.944Z,13.85
2017-10-04T08:55:38.486Z,13.85
2017-10-04T08:56:19.102Z,13.78
2017-10-04T08:56:59.683Z,13.78
2017-10-04T08:57:40.264Z,13.86
2017-10-04T08:58:20.874Z,13.83
2017-10-04T08:59:01.495Z,13.77